Time;durP1;ratioP1;P1;durP2;ratioP2;P2;SDS_P1;SDS_P2;PMS_P1;PMS_P2;Temp;Humidity;BMP_temperature;BMP_pressure;BME280_temperature;BME280_humidity;BME280_pressure;Samples;Min_cycle;Max_cycle;Signal;HPM_P1;HPM_P2
2021/04/03 00:02:10;;;;;;;;;;;;;;;20.83;28.40;100565.22;4403429;32;19969;-55
2021/04/03 00:04:36;;;;;;;;;;;;;;;20.84;28.46;100569.66;4402195;32;19970;-52
2021/04/03 00:07:02;;;;;;;;;;;;;;;20.81;28.47;100560.78;4412119;32;20368;-53
2021/04/03 00:09:28;;;;;;;;;;;;;;;20.79;28.47;100572.19;4409071;32;20277;-53
2021/04/03 00:11:53;;;;;;;;;;;;;;;20.70;28.58;100569.44;4406611;32;19981;-53
2021/04/03 00:14:19;;;;;;;;;;;;;;;20.79;28.47;100572.19;4402145;32;19947;-51
2021/04/03 00:16:45;;;;;;;;;;;;;;;20.82;28.42;100568.75;4410184;32;19966;-51
2021/04/03 00:19:11;;;;;;;;;;;;;;;20.81;28.48;100568.72;4418066;32;19950;-55
2021/04/03 00:21:37;;;;;;;;;;;;;;;20.78;28.41;100570.41;4419416;32;19958;-57
2021/04/03 00:24:03;;;;;;;;;;;;;;;20.85;28.45;100567.91;4419079;32;19958;-50
2021/04/03 00:26:29;;;;;;;;;;;;;;;20.81;28.47;100555.47;4414025;32;19951;-51
2021/04/03 00:28:55;;;;;;;;;;;;;;;20.78;28.46;100558.97;4404772;32;19973;-53
2021/04/03 00:31:22;;;;;;;;;;;;;;;20.74;28.52;100558.03;4409299;32;19968;-52
2021/04/03 00:33:48;;;;;;;;;;;;;;;20.76;28.49;100551.00;4420028;32;19950;-51
2021/04/03 00:36:14;;;;;;;;;;;;;;;20.82;28.35;100555.50;4415375;32;20260;-54
2021/04/03 00:38:40;;;;;;;;;;;;;;;20.81;28.34;100548.44;4405614;32;19998;-53
2021/04/03 00:41:06;;;;;;;;;;;;;;;20.77;28.43;100544.81;4418634;32;19991;-54
2021/04/03 00:43:32;;;;;;;;;;;;;;;20.70;28.50;100536.78;4420358;32;19962;-52
2021/04/03 00:45:58;;;;;;;;;;;;;;;20.73;28.49;100535.06;4420238;32;20301;-52
2021/04/03 00:48:24;;;;;;;;;;;;;;;20.70;28.48;100536.78;4418844;32;19958;-52
2021/04/03 00:50:50;;;;;;;;;;;;;;;20.66;28.54;100538.50;4419681;32;19954;-52
2021/04/03 00:53:16;;;;;;;;;;;;;;;20.67;28.66;100537.63;4419535;32;19946;-51
2021/04/03 00:55:42;;;;;;;;;;;;;;;20.77;28.43;100538.66;4419269;32;19954;-52
2021/04/03 00:58:07;;;;;;;;;;;;;;;20.78;28.41;100538.66;4418786;32;19996;-52
2021/04/03 01:00:33;;;;;;;;;;;;;;;20.72;28.52;100538.59;4419543;32;19999;-54
2021/04/03 01:02:59;;;;;;;;;;;;;;;20.67;28.51;100528.81;4419050;32;19980;-50
2021/04/03 01:05:25;;;;;;;;;;;;;;;20.75;28.41;100522.75;4418289;32;19954;-54
2021/04/03 01:07:51;;;;;;;;;;;;;;;20.76;28.42;100521.87;4408128;32;19950;-53
2021/04/03 01:10:17;;;;;;;;;;;;;;;20.64;28.65;100521.72;4404206;32;19960;-54
2021/04/03 01:12:43;;;;;;;;;;;;;;;20.59;28.67;100515.47;4412836;32;19954;-54
2021/04/03 01:15:09;;;;;;;;;;;;;;;20.57;28.67;100514.59;4419296;32;20058;-48
2021/04/03 01:17:35;;;;;;;;;;;;;;;20.55;28.71;100509.25;4410014;32;19958;-53
2021/04/03 01:20:01;;;;;;;;;;;;;;;20.63;28.65;100519.94;4404668;32;19958;-53
2021/04/03 01:22:26;;;;;;;;;;;;;;;20.69;28.53;100512.09;4410252;32;20003;-52
2021/04/03 01:24:52;;;;;;;;;;;;;;;20.65;28.54;100518.19;4418641;32;19988;-51
2021/04/03 01:27:19;;;;;;;;;;;;;;;20.58;28.71;100513.72;4412974;32;20407;-55
2021/04/03 01:29:44;;;;;;;;;;;;;;;20.64;28.60;100503.19;4418686;32;19954;-50
2021/04/03 01:32:10;;;;;;;;;;;;;;;20.59;28.70;100511.06;4414068;32;19980;-52
2021/04/03 01:34:36;;;;;;;;;;;;;;;20.57;28.65;100511.94;4404359;32;19981;-56
2021/04/03 01:37:02;;;;;;;;;;;;;;;20.62;28.60;100512.88;4406564;32;19988;-52
2021/04/03 01:39:28;;;;;;;;;;;;;;;20.59;28.64;100515.47;4419406;32;19982;-53
2021/04/03 01:41:54;;;;;;;;;;;;;;;20.59;28.61;100512.84;4419583;32;19947;-51
2021/04/03 01:44:20;;;;;;;;;;;;;;;20.58;28.64;100519.00;4418136;32;20838;-54
2021/04/03 01:46:45;;;;;;;;;;;;;;;20.53;28.73;100513.62;4418029;32;19973;-49
2021/04/03 01:49:11;;;;;;;;;;;;;;;20.44;28.88;100513.50;4403433;32;19961;-53
2021/04/03 01:51:37;;;;;;;;;;;;;;;20.51;28.73;100518.03;4403396;32;19950;-52
2021/04/03 01:54:03;;;;;;;;;;;;;;;20.54;28.75;100519.81;4405219;32;19954;-50
2021/04/03 01:56:29;;;;;;;;;;;;;;;20.39;28.99;100513.44;4404024;32;19958;-51
2021/04/03 01:58:55;;;;;;;;;;;;;;;20.36;29.08;100529.28;4415904;32;19981;-53
2021/04/03 02:01:21;;;;;;;;;;;;;;;20.44;28.98;100525.00;4417697;32;20338;-52
2021/04/03 02:03:47;;;;;;;;;;;;;;;20.51;28.83;100528.63;4417863;32;19953;-54
2021/04/03 02:06:12;;;;;;;;;;;;;;;20.48;28.95;100524.16;4417820;32;19958;-52
2021/04/03 02:08:38;;;;;;;;;;;;;;;20.38;28.97;100522.25;4407615;32;19954;-52
2021/04/03 02:11:04;;;;;;;;;;;;;;;20.45;28.96;100520.56;4403705;32;19999;-51
2021/04/03 02:13:30;;;;;;;;;;;;;;;20.52;28.74;100522.44;4412086;32;19950;-50
2021/04/03 02:15:56;;;;;;;;;;;;;;;20.43;28.99;100515.25;4417782;32;19950;-55
2021/04/03 02:18:22;;;;;;;;;;;;;;;20.43;28.97;100517.88;4416790;32;19957;-52
2021/04/03 02:20:48;;;;;;;;;;;;;;;20.36;29.16;100523.97;4419401;32;20321;-53
2021/04/03 02:23:14;;;;;;;;;;;;;;;20.41;28.99;100522.28;4412883;32;19996;-52
2021/04/03 02:25:39;;;;;;;;;;;;;;;20.39;29.00;100526.66;4416072;32;19972;-50
2021/04/03 02:28:05;;;;;;;;;;;;;;;20.41;28.97;100522.28;4418157;32;19953;-50
2021/04/03 02:30:31;;;;;;;;;;;;;;;20.46;28.96;100520.59;4416433;32;19958;-49
2021/04/03 02:32:57;;;;;;;;;;;;;;;20.50;28.83;100514.47;4417782;32;19960;-55
2021/04/03 02:35:23;;;;;;;;;;;;;;;20.41;28.93;100524.06;4418407;32;20049;-53
2021/04/03 02:37:49;;;;;;;;;;;;;;;20.44;28.90;100527.63;4418388;32;19991;-52
2021/04/03 02:40:15;;;;;;;;;;;;;;;20.48;28.84;100518.87;4417407;32;19946;-53
2021/04/03 02:42:41;;;;;;;;;;;;;;;20.54;28.74;100530.38;4417033;32;19950;-53
2021/04/03 02:45:08;;;;;;;;;;;;;;;20.55;28.74;100534.81;4401047;32;19954;-55
2021/04/03 02:47:34;;;;;;;;;;;;;;;20.49;28.78;100533.88;4402631;32;20339;-49
2021/04/03 02:50:00;;;;;;;;;;;;;;;20.53;28.80;100537.44;4416963;32;19999;-51
2021/04/03 02:52:26;;;;;;;;;;;;;;;20.50;28.79;100527.72;4417455;32;19953;-52
2021/04/03 02:54:52;;;;;;;;;;;;;;;20.48;28.83;100523.25;4418354;32;19958;-54
2021/04/03 02:57:17;;;;;;;;;;;;;;;20.57;28.74;100531.31;4416453;32;20730;-51
2021/04/03 02:59:43;;;;;;;;;;;;;;;20.53;28.78;100526.88;4407889;32;19950;-53
2021/04/03 03:02:09;;;;;;;;;;;;;;;20.56;28.71;100523.34;4411908;32;19950;-51
2021/04/03 03:04:35;;;;;;;;;;;;;;;20.55;28.67;100518.94;4417758;32;19994;-54
2021/04/03 03:07:01;;;;;;;;;;;;;;;20.49;28.79;100517.09;4417360;32;20028;-56
2021/04/03 03:09:27;;;;;;;;;;;;;;;20.45;28.81;100529.41;4408933;32;19955;-48
2021/04/03 03:11:53;;;;;;;;;;;;;;;20.54;28.72;100533.03;4402872;32;19950;-49
2021/04/03 03:14:19;;;;;;;;;;;;;;;20.49;28.83;100525.94;4409535;32;19951;-54
2021/04/03 03:16:45;;;;;;;;;;;;;;;20.39;28.91;100534.59;4417458;32;19985;-54
2021/04/03 03:19:11;;;;;;;;;;;;;;;20.39;28.95;100524.00;4416913;32;19998;-50
2021/04/03 03:21:37;;;;;;;;;;;;;;;20.42;28.89;100524.06;4418318;32;19970;-52
2021/04/03 03:24:02;;;;;;;;;;;;;;;20.32;29.05;100525.69;4413766;32;19966;-56
2021/04/03 03:26:28;;;;;;;;;;;;;;;20.42;28.95;100521.41;4402122;32;20665;-50
2021/04/03 03:28:54;;;;;;;;;;;;;;;20.40;28.87;100520.50;4404972;32;19965;-50
2021/04/03 03:31:20;;;;;;;;;;;;;;;20.45;28.75;100521.47;4417322;32;19954;-51
2021/04/03 03:33:47;;;;;;;;;;;;;;;20.45;28.86;100528.50;4417292;32;20369;-52
2021/04/03 03:36:12;;;;;;;;;;;;;;;20.35;28.89;100516.91;4417719;32;19973;-51
2021/04/03 03:38:39;;;;;;;;;;;;;;;20.33;28.98;100513.38;4407151;32;20326;-53
2021/04/03 03:41:05;;;;;;;;;;;;;;;20.37;28.84;100515.19;4399958;32;19947;-54
2021/04/03 03:43:31;;;;;;;;;;;;;;;20.38;28.80;100511.66;4401691;32;19996;-51
2021/04/03 03:45:57;;;;;;;;;;;;;;;20.40;28.81;100517.84;4401078;32;19964;-54
2021/04/03 03:48:23;;;;;;;;;;;;;;;20.39;28.88;100508.16;4400899;32;20332;-51
2021/04/03 03:50:49;;;;;;;;;;;;;;;20.29;29.10;100523.00;4400533;32;19965;-49
2021/04/03 03:53:15;;;;;;;;;;;;;;;20.28;29.01;100521.22;4401206;32;19999;-51
2021/04/03 03:55:41;;;;;;;;;;;;;;;20.25;29.09;100518.53;4402885;32;19968;-52
2021/04/03 03:58:07;;;;;;;;;;;;;;;20.26;29.00;100528.25;4401602;32;19998;-54
2021/04/03 04:00:32;;;;;;;;;;;;;;;20.35;28.96;100527.50;4402421;32;20052;-52
2021/04/03 04:02:58;;;;;;;;;;;;;;;20.33;29.00;100530.09;4402091;32;20306;-54
2021/04/03 04:05:24;;;;;;;;;;;;;;;20.20;29.20;100539.63;4402547;32;19958;-51
2021/04/03 04:07:50;;;;;;;;;;;;;;;20.29;29.05;100538.87;4401703;32;19951;-53
2021/04/03 04:10:16;;;;;;;;;;;;;;;20.25;29.04;100530.84;4401930;32;19988;-51
2021/04/03 04:12:42;;;;;;;;;;;;;;;20.35;28.86;100533.66;4401508;32;19959;-51
2021/04/03 04:15:08;;;;;;;;;;;;;;;20.35;29.03;100543.38;4401543;32;19950;-51
2021/04/03 04:17:34;;;;;;;;;;;;;;;20.27;29.07;100534.41;4400923;32;20383;-52
2021/04/03 04:20:00;;;;;;;;;;;;;;;20.31;29.05;100533.59;4400769;32;19947;-52
2021/04/03 04:22:26;;;;;;;;;;;;;;;20.24;29.18;100539.66;4402329;32;19958;-53
2021/04/03 04:24:52;;;;;;;;;;;;;;;20.24;29.18;100548.47;4400965;32;19943;-51
2021/04/03 04:27:17;;;;;;;;;;;;;;;20.17;29.26;100542.19;4387900;32;19963;-51
2021/04/03 04:29:43;;;;;;;;;;;;;;;20.11;29.43;100543.84;4389064;32;19991;-51
2021/04/03 04:32:09;;;;;;;;;;;;;;;20.17;29.24;100555.41;4402474;32;19998;-54
2021/04/03 04:34:35;;;;;;;;;;;;;;;20.16;29.27;100563.34;4414390;32;20311;-53
2021/04/03 04:37:01;;;;;;;;;;;;;;;20.14;29.25;100573.00;4401883;32;19955;-54
2021/04/03 04:39:27;;;;;;;;;;;;;;;20.19;29.23;100564.28;4408236;32;19973;-53
2021/04/03 04:41:53;;;;;;;;;;;;;;;20.16;29.17;100569.50;4416251;32;19953;-52
2021/04/03 04:44:19;;;;;;;;;;;;;;;20.14;29.27;100579.16;4416261;32;20337;-54
2021/04/03 04:46:45;;;;;;;;;;;;;;;20.09;29.32;100583.50;4417467;32;19946;-53
2021/04/03 04:49:10;;;;;;;;;;;;;;;20.18;29.25;100588.03;4416746;32;20275;-51
2021/04/03 04:51:36;;;;;;;;;;;;;;;20.07;29.43;100591.41;4407345;32;19939;-50
2021/04/03 04:54:02;;;;;;;;;;;;;;;20.17;29.31;100592.44;4402504;32;20366;-48
2021/04/03 04:56:28;;;;;;;;;;;;;;;20.22;29.20;100600.44;4411928;32;20031;-54
2021/04/03 04:58:54;;;;;;;;;;;;;;;20.18;29.13;100604.78;4416645;32;19990;-51
2021/04/03 05:01:20;;;;;;;;;;;;;;;20.24;29.13;100609.28;4416782;32;19967;-52
2021/04/03 05:03:46;;;;;;;;;;;;;;;20.25;29.16;100605.81;4415243;32;19946;-53
2021/04/03 05:06:12;;;;;;;;;;;;;;;20.24;29.20;100603.13;4412584;32;19939;-51
2021/04/03 05:08:38;;;;;;;;;;;;;;;20.22;29.24;100604.00;4405695;32;19961;-51
2021/04/03 05:11:04;;;;;;;;;;;;;;;20.14;29.32;100597.69;4410239;32;19985;-52
2021/04/03 05:13:30;;;;;;;;;;;;;;;20.25;29.14;100610.19;4420957;32;19962;-49
2021/04/03 05:15:56;;;;;;;;;;;;;;;20.24;29.10;100613.72;4420278;32;19977;-49
2021/04/03 05:18:22;;;;;;;;;;;;;;;20.25;29.10;100610.19;4419396;32;20306;-53
2021/04/03 05:20:48;;;;;;;;;;;;;;;20.14;29.26;100607.38;4420848;32;19973;-53
2021/04/03 05:23:14;;;;;;;;;;;;;;;20.19;29.25;100616.25;4420463;32;20310;-52
2021/04/03 05:25:40;;;;;;;;;;;;;;;20.14;29.28;100613.53;4418043;32;19951;-53
2021/04/03 05:28:05;;;;;;;;;;;;;;;19.95;29.56;100620.25;4403671;32;19992;-49
2021/04/03 05:30:31;;;;;;;;;;;;;;;20.01;29.49;100622.12;4405372;32;19980;-53
2021/04/03 05:32:57;;;;;;;;;;;;;;;19.98;29.64;100622.06;4405081;32;19962;-53
2021/04/03 05:35:23;;;;;;;;;;;;;;;20.02;29.53;100623.91;4403628;32;20045;-51
2021/04/03 05:37:49;;;;;;;;;;;;;;;20.04;29.42;100627.47;4418618;32;19969;-53
2021/04/03 05:40:15;;;;;;;;;;;;;;;20.12;29.40;100633.78;4419486;32;19942;-51
2021/04/03 05:42:41;;;;;;;;;;;;;;;20.11;29.41;100634.66;4406937;32;20331;-51
2021/04/03 05:45:07;;;;;;;;;;;;;;;20.06;29.50;100636.31;4409796;32;20020;-55
2021/04/03 05:47:33;;;;;;;;;;;;;;;20.09;29.49;100639.03;4407638;32;19988;-49
2021/04/03 05:49:58;;;;;;;;;;;;;;;20.09;29.52;100633.72;4405543;32;19966;-52
2021/04/03 05:52:24;;;;;;;;;;;;;;;20.12;29.48;100640.81;4409373;32;20330;-50
2021/04/03 05:54:50;;;;;;;;;;;;;;;20.07;29.51;100640.75;4405288;32;19954;-54
2021/04/03 05:57:16;;;;;;;;;;;;;;;19.99;29.66;100639.72;4412168;32;19941;-53
2021/04/03 05:59:42;;;;;;;;;;;;;;;20.11;29.51;100645.22;4419691;32;20283;-51
2021/04/03 06:02:08;;;;;;;;;;;;;;;20.07;29.65;100646.91;4418422;32;19965;-51
2021/04/03 06:04:34;;;;;;;;;;;;;;;19.99;29.68;100652.94;4418587;32;19954;-53
2021/04/03 06:07:00;;;;;;;;;;;;;;;20.05;29.75;100660.97;4419546;32;19984;-49
2021/04/03 06:09:26;;;;;;;;;;;;;;;20.03;29.67;100660.03;4418820;32;19980;-55
2021/04/03 06:11:52;;;;;;;;;;;;;;;20.04;29.67;100659.19;4417142;32;20424;-53
2021/04/03 06:14:18;;;;;;;;;;;;;;;20.06;29.59;100668.94;4418600;32;19953;-51
2021/04/03 06:16:44;;;;;;;;;;;;;;;20.06;29.57;100657.44;4417217;32;19989;-48
2021/04/03 06:19:10;;;;;;;;;;;;;;;20.10;29.59;100664.59;4419486;32;19957;-50
2021/04/03 06:21:36;;;;;;;;;;;;;;;20.14;29.51;100662.91;4419330;32;19942;-52
2021/04/03 06:24:02;;;;;;;;;;;;;;;20.04;29.71;100662.72;4419911;32;19946;-53
2021/04/03 06:26:28;;;;;;;;;;;;;;;20.01;29.71;100678.53;4418631;32;19986;-52
2021/04/03 06:28:54;;;;;;;;;;;;;;;20.05;29.72;100682.09;4419117;32;20068;-55
2021/04/03 06:31:21;;;;;;;;;;;;;;;20.06;29.63;100684.78;4418777;32;19975;-51
2021/04/03 06:33:48;;;;;;;;;;;;;;;20.06;29.70;100687.44;4419291;32;19950;-53
2021/04/03 06:36:13;;;;;;;;;;;;;;;19.96;29.84;100692.53;4418176;32;19999;-52
2021/04/03 06:38:39;;;;;;;;;;;;;;;19.97;29.81;100699.59;4419064;32;19950;-56
2021/04/03 06:41:05;;;;;;;;;;;;;;;20.08;29.67;100700.69;4418487;32;19964;-53
2021/04/03 06:43:31;;;;;;;;;;;;;;;20.09;29.71;100694.53;4417057;32;19946;-55
2021/04/03 06:45:57;;;;;;;;;;;;;;;20.17;29.55;100698.19;4418938;32;20373;-53
2021/04/03 06:48:23;;;;;;;;;;;;;;;20.12;29.61;100694.59;4417588;32;20087;-55
2021/04/03 06:50:50;;;;;;;;;;;;;;;20.12;29.58;100694.59;4418761;32;19984;-50
2021/04/03 06:53:15;;;;;;;;;;;;;;;20.17;29.56;100695.56;4418504;32;19960;-54
2021/04/03 06:55:41;;;;;;;;;;;;;;;20.13;29.61;100706.06;4416956;32;19969;-51
2021/04/03 06:58:07;;;;;;;;;;;;;;;20.07;29.68;100701.56;4417629;32;19954;-54
2021/04/03 07:00:33;;;;;;;;;;;;;;;20.14;29.61;100698.16;4418814;32;20324;-51
2021/04/03 07:02:59;;;;;;;;;;;;;;;20.10;29.64;100709.53;4418616;32;19983;-53
2021/04/03 07:05:25;;;;;;;;;;;;;;;20.03;29.74;100703.25;4418191;32;19972;-51
2021/04/03 07:07:51;;;;;;;;;;;;;;;20.06;29.71;100712.97;4414565;32;19993;-54
2021/04/03 07:10:17;;;;;;;;;;;;;;;20.06;29.71;100708.59;4415864;32;20315;-53
2021/04/03 07:12:43;;;;;;;;;;;;;;;20.10;29.66;100712.19;4416375;32;19953;-50
2021/04/03 07:15:09;;;;;;;;;;;;;;;20.16;29.56;100711.41;4414299;32;20018;-51
2021/04/03 07:17:35;;;;;;;;;;;;;;;20.10;29.65;100706.91;4417312;32;19946;-50
2021/04/03 07:20:00;;;;;;;;;;;;;;;20.10;29.65;100714.81;4418355;32;19973;-48
2021/04/03 07:22:26;;;;;;;;;;;;;;;20.16;29.59;100717.56;4417826;32;20027;-57
2021/04/03 07:24:52;;;;;;;;;;;;;;;20.17;29.54;100719.34;4406907;32;19955;-49
2021/04/03 07:27:18;;;;;;;;;;;;;;;20.18;29.51;100710.56;4401659;32;19946;-54
2021/04/03 07:29:44;;;;;;;;;;;;;;;20.14;29.57;100723.72;4401441;32;20671;-50
2021/04/03 07:32:10;;;;;;;;;;;;;;;20.14;29.58;100723.72;4402579;32;19942;-51
2021/04/03 07:34:36;;;;;;;;;;;;;;;20.12;29.61;100726.31;4403700;32;20331;-50
2021/04/03 07:37:02;;;;;;;;;;;;;;;20.14;29.58;100729.88;4414971;32;19980;-52
2021/04/03 07:39:28;;;;;;;;;;;;;;;20.22;29.48;100733.56;4416535;32;20126;-51
2021/04/03 07:41:54;;;;;;;;;;;;;;;20.24;29.46;100732.69;4418073;32;20329;-55
2021/04/03 07:44:20;;;;;;;;;;;;;;;20.20;29.49;100737.03;4412894;32;19954;-55
2021/04/03 07:46:46;;;;;;;;;;;;;;;20.17;29.53;100735.22;4415212;32;19962;-56
2021/04/03 07:49:12;;;;;;;;;;;;;;;20.14;29.57;100735.16;4414619;32;19968;-55
2021/04/03 07:51:37;;;;;;;;;;;;;;;20.21;29.48;100742.37;4415459;32;19954;-56
2021/04/03 07:54:03;;;;;;;;;;;;;;;20.16;29.56;100744.00;4408077;32;19962;-50
2021/04/03 07:56:29;;;;;;;;;;;;;;;20.14;29.62;100744.88;4401249;32;20018;-56
2021/04/03 07:58:56;;;;;;;;;;;;;;;20.13;29.62;100746.59;4406221;32;19969;-55
2021/04/03 08:01:21;;;;;;;;;;;;;;;20.15;29.61;100741.34;4417040;32;19973;-55
2021/04/03 08:03:47;;;;;;;;;;;;;;;20.16;29.58;100745.78;4417106;32;19954;-55
2021/04/03 08:06:13;;;;;;;;;;;;;;;20.30;29.40;100746.94;4416119;32;19953;-55
2021/04/03 08:08:39;;;;;;;;;;;;;;;20.27;29.41;100741.59;4416538;32;19968;-56
2021/04/03 08:11:05;;;;;;;;;;;;;;;20.25;29.44;100742.41;4416063;32;20019;-55
2021/04/03 08:13:31;;;;;;;;;;;;;;;20.20;29.53;100755.53;4416762;32;20363;-56
2021/04/03 08:15:57;;;;;;;;;;;;;;;20.24;29.53;100753.84;4416298;32;19973;-55
2021/04/03 08:18:23;;;;;;;;;;;;;;;20.22;29.55;100757.38;4413940;32;20057;-56
2021/04/03 08:20:49;;;;;;;;;;;;;;;20.29;29.45;100758.38;4416261;32;19942;-52
2021/04/03 08:23:15;;;;;;;;;;;;;;;20.27;29.45;100759.19;4415681;32;19942;-56
2021/04/03 08:25:41;;;;;;;;;;;;;;;20.25;29.53;100758.28;4415064;32;20019;-55
2021/04/03 08:28:07;;;;;;;;;;;;;;;20.21;29.58;100762.63;4417506;32;20335;-56
2021/04/03 08:30:33;;;;;;;;;;;;;;;20.26;29.52;100755.69;4417208;32;19938;-57
2021/04/03 08:32:59;;;;;;;;;;;;;;;20.33;29.43;100765.50;4417571;32;19949;-52
2021/04/03 08:35:24;;;;;;;;;;;;;;;20.30;29.49;100768.09;4415946;32;19995;-55
2021/04/03 08:37:50;;;;;;;;;;;;;;;20.33;29.46;100773.44;4416443;32;19968;-55
2021/04/03 08:40:16;;;;;;;;;;;;;;;20.35;29.45;100773.47;4416359;32;20260;-53
2021/04/03 08:42:42;;;;;;;;;;;;;;;20.37;29.42;100771.75;4420327;32;19950;-55
2021/04/03 08:45:08;;;;;;;;;;;;;;;20.42;29.37;100771.81;4419535;32;20010;-54
2021/04/03 08:47:34;;;;;;;;;;;;;;;20.40;29.42;100774.44;4418523;32;19972;-55
2021/04/03 08:50:00;;;;;;;;;;;;;;;20.35;29.48;100771.69;4417866;32;19945;-54
2021/04/03 08:52:26;;;;;;;;;;;;;;;20.48;29.28;100767.53;4419389;32;19999;-54
2021/04/03 08:54:52;;;;;;;;;;;;;;;20.45;29.37;100778.06;4414078;32;19981;-51
2021/04/03 08:57:18;;;;;;;;;;;;;;;20.36;29.49;100777.91;4403871;32;20287;-53
2021/04/03 08:59:44;;;;;;;;;;;;;;;20.34;29.42;100775.22;4409419;32;20035;-52
2021/04/03 09:02:10;;;;;;;;;;;;;;;20.42;29.35;100771.81;4419315;32;19938;-52
2021/04/03 09:04:35;;;;;;;;;;;;;;;20.08;29.49;100782.66;4419615;32;19962;-54
2021/04/03 09:07:02;;;;;;;;;;;;;;;20.24;29.49;100782.94;4420030;32;19973;-53
2021/04/03 09:09:28;;;;;;;;;;;;;;;20.41;29.29;100780.63;4419529;32;19978;-54
2021/04/03 09:11:54;;;;;;;;;;;;;;;20.46;29.13;100784.22;4418298;32;20009;-51
2021/04/03 09:14:20;;;;;;;;;;;;;;;20.43;29.20;100790.34;4419737;32;19981;-54
2021/04/03 09:16:46;;;;;;;;;;;;;;;20.43;29.51;100797.41;4418439;32;19957;-54
2021/04/03 09:19:12;;;;;;;;;;;;;;;20.50;29.19;100791.38;4418467;32;20330;-54
2021/04/03 09:21:38;;;;;;;;;;;;;;;20.48;29.18;100796.63;4418731;32;19974;-55
2021/04/03 09:24:04;;;;;;;;;;;;;;;20.48;29.21;100794.00;4418133;32;19993;-55
2021/04/03 09:26:29;;;;;;;;;;;;;;;20.57;29.09;100800.31;4420565;32;19958;-53
2021/04/03 09:28:55;;;;;;;;;;;;;;;20.61;29.04;100804.81;4419051;32;19953;-53
2021/04/03 09:31:21;;;;;;;;;;;;;;;20.65;28.91;100806.63;4418893;32;19950;-55
2021/04/03 09:33:47;;;;;;;;;;;;;;;20.66;28.90;100797.81;4419644;32;19950;-54
2021/04/03 09:36:13;;;;;;;;;;;;;;;20.66;28.90;100803.13;4418982;32;20294;-53
2021/04/03 09:38:39;;;;;;;;;;;;;;;20.65;28.93;100793.41;4419083;32;19986;-53
2021/04/03 09:41:05;;;;;;;;;;;;;;;20.62;28.93;100806.59;4418711;32;19961;-51
2021/04/03 09:43:31;;;;;;;;;;;;;;;20.63;28.94;100798.69;4419038;32;19954;-54
2021/04/03 09:45:57;;;;;;;;;;;;;;;20.63;28.94;100808.34;4418843;32;19972;-55
2021/04/03 09:48:23;;;;;;;;;;;;;;;20.61;29.00;100794.22;4417055;32;20038;-52
2021/04/03 09:50:49;;;;;;;;;;;;;;;20.64;28.95;100799.56;4418749;32;19996;-55
2021/04/03 09:53:14;;;;;;;;;;;;;;;20.65;29.03;100793.41;4418691;32;19938;-53
2021/04/03 09:55:40;;;;;;;;;;;;;;;20.62;29.07;100798.66;4419553;32;19966;-55
2021/04/03 09:58:06;;;;;;;;;;;;;;;20.62;29.07;100801.28;4417454;32;19968;-53
2021/04/03 10:00:32;;;;;;;;;;;;;;;20.64;29.08;100799.56;4413070;32;19990;-54
2021/04/03 10:02:58;;;;;;;;;;;;;;;20.68;29.06;100800.50;4418959;32;20347;-51
2021/04/03 10:05:24;;;;;;;;;;;;;;;20.70;29.19;100793.47;4416534;32;20001;-53
2021/04/03 10:07:50;;;;;;;;;;;;;;;20.74;29.13;100793.56;4417557;32;20001;-53
2021/04/03 10:10:16;;;;;;;;;;;;;;;20.75;29.07;100795.34;4411504;32;19986;-54
2021/04/03 10:12:42;;;;;;;;;;;;;;;20.76;29.07;100789.19;4416960;32;20361;-53
2021/04/03 10:15:08;;;;;;;;;;;;;;;20.77;29.08;100795.38;4417549;32;19961;-54
2021/04/03 10:17:33;;;;;;;;;;;;;;;20.75;29.10;100792.69;4418271;32;19989;-53
2021/04/03 10:19:59;;;;;;;;;;;;;;;20.68;29.33;100789.91;4416603;32;19984;-53
2021/04/03 10:22:25;;;;;;;;;;;;;;;20.66;29.31;100792.53;4417752;32;19968;-54
2021/04/03 10:24:51;;;;;;;;;;;;;;;20.71;29.20;100790.88;4417880;32;20400;-53
2021/04/03 10:27:17;;;;;;;;;;;;;;;20.63;29.62;100788.09;4417307;32;19939;-53
2021/04/03 10:29:43;;;;;;;;;;;;;;;20.63;29.62;100797.78;4416668;32;20570;-53
2021/04/03 10:32:09;;;;;;;;;;;;;;;20.67;29.53;100794.31;4415571;32;19942;-55
2021/04/03 10:34:35;;;;;;;;;;;;;;;20.75;29.41;100786.53;4416222;32;20486;-55
2021/04/03 10:37:01;;;;;;;;;;;;;;;20.78;29.39;100790.09;4416695;32;20005;-53
2021/04/03 10:39:27;;;;;;;;;;;;;;;20.75;29.43;100784.75;4414312;32;19941;-54
2021/04/03 10:41:53;;;;;;;;;;;;;;;20.81;29.40;100783.09;4415796;32;19984;-54
2021/04/03 10:44:19;;;;;;;;;;;;;;;20.83;29.41;100789.34;4414644;32;19992;-54
2021/04/03 10:46:45;;;;;;;;;;;;;;;20.87;29.37;100785.87;4417717;32;19958;-54
2021/04/03 10:49:10;;;;;;;;;;;;;;;20.92;29.29;100787.72;4416360;32;20049;-56
2021/04/03 10:51:36;;;;;;;;;;;;;;;20.91;29.33;100788.59;4415883;32;20011;-52
2021/04/03 10:54:03;;;;;;;;;;;;;;;20.95;29.29;100784.25;4417292;32;19946;-54
2021/04/03 10:56:29;;;;;;;;;;;;;;;20.97;29.25;100782.50;4415159;32;19962;-56
2021/04/03 10:58:55;;;;;;;;;;;;;;;20.96;29.28;100779.81;4415896;32;19961;-55
2021/04/03 11:01:21;;;;;;;;;;;;;;;20.98;29.25;100779.00;4417390;32;19946;-55
2021/04/03 11:03:47;;;;;;;;;;;;;;;21.01;29.24;100783.47;4416744;32;19998;-53
2021/04/03 11:06:13;;;;;;;;;;;;;;;20.97;29.30;100781.59;4416543;32;19981;-55
2021/04/03 11:08:39;;;;;;;;;;;;;;;20.97;29.29;100774.56;4417033;32;19966;-54
2021/04/03 11:11:06;;;;;;;;;;;;;;;21.00;29.29;100782.56;4417659;32;19938;-52
2021/04/03 11:13:33;;;;;;;;;;;;;;;21.00;29.33;100782.56;4414824;32;20359;-52
2021/04/03 11:15:59;;;;;;;;;;;;;;;21.03;29.33;100782.59;4415603;32;20029;-56
2021/04/03 11:18:24;;;;;;;;;;;;;;;21.04;29.29;100773.78;4416239;32;19942;-56
2021/04/03 11:20:51;;;;;;;;;;;;;;;21.05;29.29;100780.91;4416749;32;19954;-53
2021/04/03 11:23:16;;;;;;;;;;;;;;;21.09;29.24;100775.63;4414312;32;19946;-55
2021/04/03 11:25:44;;;;;;;;;;;;;;;21.11;29.23;100774.78;4417083;32;19972;-54
2021/04/03 11:28:10;;;;;;;;;;;;;;;21.12;29.19;100766.00;4415579;32;19958;-55
2021/04/03 11:30:36;;;;;;;;;;;;;;;21.13;29.20;100772.16;4417370;32;19980;-54
2021/04/03 11:33:02;;;;;;;;;;;;;;;21.16;29.15;100769.53;4407868;32;19989;-52
2021/04/03 11:35:28;;;;;;;;;;;;;;;21.18;29.13;100770.50;4406829;32;21098;-55
2021/04/03 11:37:54;;;;;;;;;;;;;;;21.19;29.09;100766.97;4416804;32;20370;-52
2021/04/03 11:40:20;;;;;;;;;;;;;;;21.21;29.08;100770.53;4416427;32;19953;-53
2021/04/03 11:42:48;;;;;;;;;;;;;;;21.21;29.08;100767.88;4418428;32;19962;-55
2021/04/03 11:45:13;;;;;;;;;;;;;;;21.22;29.08;100767.00;4417571;32;19974;-55
2021/04/03 11:47:39;;;;;;;;;;;;;;;21.23;29.07;100766.13;4416331;32;20332;-54
2021/04/03 11:50:05;;;;;;;;;;;;;;;21.24;29.08;100769.69;4416407;32;20325;-53
2021/04/03 11:52:31;;;;;;;;;;;;;;;21.26;29.05;100768.81;4416967;32;19969;-53
2021/04/03 11:54:57;;;;;;;;;;;;;;;21.27;29.03;100753.84;4416494;32;19954;-52
2021/04/03 11:57:23;;;;;;;;;;;;;;;21.28;29.02;100751.19;4414690;32;20049;-55
2021/04/03 11:59:49;;;;;;;;;;;;;;;21.30;29.00;100753.88;4415678;32;19992;-55
2021/04/03 12:02:15;;;;;;;;;;;;;;;21.31;28.97;100756.56;4417031;32;19942;-55
2021/04/03 12:04:41;;;;;;;;;;;;;;;21.33;28.89;100751.25;4416525;32;19950;-52
2021/04/03 12:07:07;;;;;;;;;;;;;;;21.31;28.85;100743.31;4416759;32;19954;-54
2021/04/03 12:09:33;;;;;;;;;;;;;;;21.34;28.82;100740.69;4416737;32;19958;-54
2021/04/03 12:11:59;;;;;;;;;;;;;;;21.32;28.72;100738.87;4417488;32;19960;-56
2021/04/03 12:14:25;;;;;;;;;;;;;;;21.17;29.06;100739.53;4414878;32;20338;-55
2021/04/03 12:16:50;;;;;;;;;;;;;;;21.20;29.02;100736.97;4415643;32;19962;-54
2021/04/03 12:19:16;;;;;;;;;;;;;;;21.18;29.02;100746.66;4415927;32;19938;-54
2021/04/03 12:21:42;;;;;;;;;;;;;;;21.23;28.92;100739.66;4412840;32;19962;-53
2021/04/03 12:24:08;;;;;;;;;;;;;;;21.25;28.96;100732.63;4412817;32;19954;-53
2021/04/03 12:26:34;;;;;;;;;;;;;;;21.30;28.90;100725.63;4415426;32;19962;-54
2021/04/03 12:29:00;;;;;;;;;;;;;;;21.32;28.89;100723.91;4414746;32;20335;-56